Time;durP1;ratioP1;P1;durP2;ratioP2;P2;SDS_P1;SDS_P2;PMS_P1;PMS_P2;Temp;Humidity;BMP_temperature;BMP_pressure;BME280_temperature;BME280_humidity;BME280_pressure;Samples;Min_cycle;Max_cycle;Signal;HPM_P1;HPM_P2
2023/09/09 00:01:00;;;;;;;11.93;9.73;;;;;;;16.09;79.37;101252.22;4951885;28;20216;-70
2023/09/09 00:03:26;;;;;;;11.57;9.47;;;;;;;16.08;79.52;101248.75;4950798;28;20807;-70
2023/09/09 00:05:53;;;;;;;11.20;9.87;;;;;;;16.07;79.81;101254.41;4953784;28;21301;-70
2023/09/09 00:08:19;;;;;;;12.70;10.30;;;;;;;16.05;80.27;101254.75;4952980;28;20201;-70
2023/09/09 00:10:46;;;;;;;14.97;9.70;;;;;;;16.04;79.94;101258.53;4956620;28;20204;-70
2023/09/09 00:13:14;;;;;;;13.17;10.40;;;;;;;16.04;80.62;101263.13;4952455;28;20218;-70
2023/09/09 00:15:40;;;;;;;12.03;10.67;;;;;;;16.03;80.69;101272.22;4954174;28;20563;-70
2023/09/09 00:18:07;;;;;;;12.13;9.90;;;;;;;15.99;79.46;101266.03;4953654;28;20235;-70
2023/09/09 00:20:35;;;;;;;12.03;10.47;;;;;;;15.96;79.88;101264.84;4954994;28;21231;-70
2023/09/09 00:23:07;;;;;;;11.23;9.93;;;;;;;15.96;80.04;101275.50;4954549;28;20206;-70
2023/09/09 00:25:33;;;;;;;10.63;9.30;;;;;;;15.92;80.12;101265.84;4953939;28;20356;-70
2023/09/09 00:27:59;;;;;;;11.13;9.93;;;;;;;15.90;79.66;101262.78;4952921;28;20830;-70
2023/09/09 00:30:28;;;;;;;13.60;10.07;;;;;;;15.86;80.07;101264.56;4951374;28;20983;-70
2023/09/09 00:32:54;;;;;;;11.30;10.10;;;;;;;15.83;79.78;101263.38;4951752;28;20220;-70
2023/09/09 00:35:21;;;;;;;11.57;9.53;;;;;;;15.81;79.99;101267.50;4950925;28;20210;-70
2023/09/09 00:37:47;;;;;;;16.57;10.57;;;;;;;15.78;80.28;101270.84;4950734;28;20873;-69
2023/09/09 00:40:13;;;;;;;12.43;11.07;;;;;;;15.75;79.51;101274.19;4951355;28;20213;-69
2023/09/09 00:42:40;;;;;;;11.33;10.13;;;;;;;15.70;79.67;101261.13;4951835;28;21045;-70
2023/09/09 00:45:07;;;;;;;13.47;11.00;;;;;;;15.68;80.83;101266.78;4949064;28;20217;-70
2023/09/09 00:47:35;;;;;;;13.90;10.73;;;;;;;15.65;81.54;101270.16;4952117;28;20718;-71
2023/09/09 00:50:03;;;;;;;12.70;11.17;;;;;;;15.63;81.30;101264.38;4955350;28;20209;-70
2023/09/09 00:52:29;;;;;;;14.47;10.37;;;;;;;15.63;81.81;101276.94;4950654;28;21264;-70
2023/09/09 00:54:56;;;;;;;13.40;10.87;;;;;;;15.61;81.04;101276.50;4950753;28;20213;-70
2023/09/09 00:57:22;;;;;;;11.80;10.60;;;;;;;15.57;81.32;101271.06;4949140;28;21356;-70
2023/09/09 00:59:49;;;;;;;11.47;10.23;;;;;;;15.53;80.92;101272.13;4952256;28;20217;-70
2023/09/09 01:02:16;;;;;;;12.80;10.07;;;;;;;15.50;80.86;101270.91;4950154;28;21771;-70
2023/09/09 01:04:43;;;;;;;11.53;10.03;;;;;;;15.48;81.28;101267.03;4952493;28;20225;-70
2023/09/09 01:07:10;;;;;;;12.97;9.97;;;;;;;15.46;81.85;101271.91;4951542;28;20231;-71
2023/09/09 01:09:37;;;;;;;14.30;10.27;;;;;;;15.42;82.06;101271.81;4951233;28;20276;-70
2023/09/09 01:12:07;;;;;;;11.87;10.03;;;;;;;15.38;81.93;101272.84;4950360;28;20705;-70
2023/09/09 01:14:33;;;;;;;14.30;10.77;;;;;;;15.35;81.99;101271.66;4963193;28;20236;-70
2023/09/09 01:17:00;;;;;;;13.03;10.77;;;;;;;15.32;82.33;101274.19;4955172;28;20221;-70
2023/09/09 01:19:31;;;;;;;12.93;9.43;;;;;;;15.28;81.39;101266.13;4949880;28;20797;-70
2023/09/09 01:22:03;;;;;;;12.80;10.40;;;;;;;15.25;81.57;101268.66;4951306;28;20262;-70
2023/09/09 01:24:31;;;;;;;14.03;10.13;;;;;;;15.23;82.71;101271.69;4951228;28;20574;-70
2023/09/09 01:26:58;;;;;;;11.93;9.87;;;;;;;15.19;82.56;101270.00;4946436;28;20243;-70
2023/09/09 01:29:25;;;;;;;11.53;10.03;;;;;;;15.16;82.33;101273.38;4950612;28;21423;-70
2023/09/09 01:31:51;;;;;;;13.50;10.47;;;;;;;15.12;82.73;101275.91;4954399;28;20205;-70
2023/09/09 01:34:18;;;;;;;15.40;11.73;;;;;;;15.08;81.66;101268.97;4946564;28;20208;-70
2023/09/09 01:36:47;;;;;;;15.83;10.63;;;;;;;15.05;81.87;101269.66;4950373;28;20238;-70
2023/09/09 01:39:14;;;;;;;11.23;9.80;;;;;;;15.02;82.56;101273.75;4949932;28;20224;-70
2023/09/09 01:41:42;;;;;;;13.60;10.67;;;;;;;15.00;82.77;101273.31;4948730;28;20579;-70
2023/09/09 01:44:09;;;;;;;14.17;11.03;;;;;;;14.97;82.45;101270.56;4951992;28;21490;-70
2023/09/09 01:46:36;;;;;;;14.50;11.63;;;;;;;14.96;82.75;101275.09;4949621;28;20225;-70
2023/09/09 01:49:03;;;;;;;15.33;11.27;;;;;;;14.93;83.44;101270.47;4949276;28;20206;-70
2023/09/09 01:51:32;;;;;;;15.20;11.03;;;;;;;14.90;82.85;101278.34;4950347;28;20350;-70
2023/09/09 01:53:58;;;;;;;16.10;11.50;;;;;;;14.88;82.84;101273.34;4949691;28;20224;-70
2023/09/09 01:56:25;;;;;;;14.17;10.93;;;;;;;14.86;82.95;101277.47;4949990;28;20250;-70
2023/09/09 01:58:53;;;;;;;14.27;11.57;;;;;;;14.82;82.51;101273.91;4953765;28;20908;-70
2023/09/09 02:01:19;;;;;;;12.77;10.77;;;;;;;14.80;82.77;101270.81;4950493;28;20225;-70
2023/09/09 02:03:52;;;;;;;16.90;11.20;;;;;;;14.76;81.89;101269.94;4952198;28;20209;-70
2023/09/09 02:06:19;;;;;;;13.73;11.20;;;;;;;14.75;82.50;101271.81;4953195;28;20232;-70
2023/09/09 02:08:45;;;;;;;16.20;12.07;;;;;;;14.74;82.31;101277.50;4951926;28;20223;-70
2023/09/09 02:11:12;;;;;;;14.07;11.93;;;;;;;14.71;82.40;101270.97;4956617;28;20201;-69
2023/09/09 02:13:38;;;;;;;13.87;11.43;;;;;;;14.69;82.62;101273.16;4955061;28;20204;-70
2023/09/09 02:16:07;;;;;;;14.63;12.57;;;;;;;14.68;82.46;101263.66;4954214;28;20240;-70
2023/09/09 02:18:37;;;;;;;17.53;12.60;;;;;;;14.66;82.98;101265.09;4951407;28;20215;-70
2023/09/09 02:21:05;;;;;;;16.30;11.53;;;;;;;14.63;82.83;101265.75;4954106;28;20221;-71
2023/09/09 02:23:31;;;;;;;15.03;11.10;;;;;;;14.62;83.52;101253.56;4951672;28;20215;-70
2023/09/09 02:25:58;;;;;;;16.27;12.17;;;;;;;14.60;82.60;101267.19;4965084;28;20219;-69
2023/09/09 02:28:25;;;;;;;13.83;11.77;;;;;;;14.57;83.33;101262.56;4951486;28;20212;-70
2023/09/09 02:30:51;;;;;;;19.17;12.73;;;;;;;14.57;83.79;101267.88;4953148;28;20598;-71
2023/09/09 02:33:19;;;;;;;13.80;11.60;;;;;;;14.54;83.93;101265.88;4967775;28;20209;-70
2023/09/09 02:35:45;;;;;;;14.90;11.87;;;;;;;14.52;83.21;101273.41;4955936;28;20212;-70
2023/09/09 02:38:12;;;;;;;16.80;11.50;;;;;;;14.50;83.45;101272.97;4956820;28;20201;-71
2023/09/09 02:40:38;;;;;;;14.30;11.97;;;;;;;14.47;83.29;101276.31;4950708;28;20727;-71
2023/09/09 02:43:05;;;;;;;12.73;10.93;;;;;;;14.44;83.36;101266.34;4951345;28;20232;-70
2023/09/09 02:45:31;;;;;;;20.03;12.50;;;;;;;14.43;82.89;101264.03;4949538;28;20215;-71
2023/09/09 02:47:58;;;;;;;17.27;13.20;;;;;;;14.42;83.34;101268.56;4952205;28;20724;-71
2023/09/09 02:50:26;;;;;;;15.17;12.47;;;;;;;14.40;83.91;101260.16;4953615;28;20213;-71
2023/09/09 02:52:52;;;;;;;14.67;11.63;;;;;;;14.38;83.40;101262.34;4951279;28;20237;-71
2023/09/09 02:55:19;;;;;;;15.77;12.50;;;;;;;14.37;84.25;101263.47;4963030;28;20215;-71
2023/09/09 02:57:48;;;;;;;15.13;12.07;;;;;;;14.35;83.75;101256.94;4952553;28;20225;-71
2023/09/09 03:00:15;;;;;;;14.47;11.73;;;;;;;14.34;83.68;101258.06;4954039;28;20209;-71
2023/09/09 03:02:42;;;;;;;15.90;11.60;;;;;;;14.33;83.66;101256.50;4956013;28;20224;-71
2023/09/09 03:05:09;;;;;;;14.60;11.40;;;;;;;14.33;84.41;101253.84;4953227;28;20204;-71
2023/09/09 03:07:37;;;;;;;16.30;12.70;;;;;;;14.29;84.36;101255.63;4951427;28;20236;-71
2023/09/09 03:10:04;;;;;;;16.53;12.77;;;;;;;14.26;83.87;101249.09;4951973;28;20212;-71
2023/09/09 03:12:31;;;;;;;13.17;11.50;;;;;;;14.27;84.77;101255.16;4963019;28;20812;-71
2023/09/09 03:14:57;;;;;;;15.37;12.20;;;;;;;14.27;84.92;101252.50;4952943;28;20337;-71
2023/09/09 03:17:23;;;;;;;14.30;11.43;;;;;;;14.24;85.44;101253.19;4952308;28;20224;-71
2023/09/09 03:19:50;;;;;;;16.67;11.83;;;;;;;14.22;85.09;101258.03;4953375;28;20409;-70
2023/09/09 03:22:17;;;;;;;14.47;12.50;;;;;;;14.19;84.43;101256.03;4950295;28;20818;-70
2023/09/09 03:24:44;;;;;;;15.37;11.50;;;;;;;14.18;85.10;101251.84;4947372;28;20219;-71
2023/09/09 03:27:11;;;;;;;16.33;11.97;;;;;;;14.16;84.53;101260.13;4967850;28;20300;-71
2023/09/09 03:29:37;;;;;;;14.33;11.57;;;;;;;14.10;83.04;101263.34;4964303;28;20225;-70
2023/09/09 03:32:04;;;;;;;12.80;10.87;;;;;;;14.11;84.69;101257.69;4951563;28;20229;-71
2023/09/09 03:34:31;;;;;;;16.27;12.37;;;;;;;14.09;85.60;101251.97;4947913;28;20314;-71
2023/09/09 03:36:57;;;;;;;14.33;11.93;;;;;;;14.07;85.34;101261.34;4952315;28;21805;-70
2023/09/09 03:39:24;;;;;;;13.60;11.30;;;;;;;14.08;86.14;101257.59;4951173;28;20224;-70
2023/09/09 03:41:51;;;;;;;13.63;11.10;;;;;;;14.06;86.50;101254.47;4952728;28;20219;-71
2023/09/09 03:44:18;;;;;;;16.77;11.53;;;;;;;14.03;86.01;101258.56;4949837;28;20215;-71
2023/09/09 03:46:45;;;;;;;14.53;11.57;;;;;;;14.03;85.96;101260.47;4947482;28;20232;-72
2023/09/09 03:49:11;;;;;;;16.27;12.57;;;;;;;14.02;86.16;101256.28;4951746;28;20223;-71
2023/09/09 03:51:37;;;;;;;14.30;12.10;;;;;;;14.01;86.27;101257.34;4964384;28;21179;-71
2023/09/09 03:54:04;;;;;;;15.10;12.27;;;;;;;13.96;84.96;101258.34;4950640;28;20554;-71
2023/09/09 03:56:32;;;;;;;14.23;10.97;;;;;;;13.95;85.75;101256.81;4950840;28;21900;-71
2023/09/09 03:59:00;;;;;;;14.77;11.90;;;;;;;13.95;85.88;101256.03;4952822;28;20299;-71
2023/09/09 04:01:29;;;;;;;18.83;11.80;;;;;;;13.91;85.62;101257.78;4961691;28;20204;-71
2023/09/09 04:03:56;;;;;;;15.33;12.30;;;;;;;13.86;84.07;101258.00;4952366;28;20906;-71
2023/09/09 04:06:23;;;;;;;15.77;11.87;;;;;;;13.83;84.66;101264.78;4948493;28;20248;-71
2023/09/09 04:08:55;;;;;;;15.53;12.50;;;;;;;13.81;84.64;101258.25;4953499;28;20201;-71
2023/09/09 04:11:22;;;;;;;19.00;11.47;;;;;;;13.82;85.84;101260.53;4950046;28;20714;-71
2023/09/09 04:13:48;;;;;;;16.53;12.50;;;;;;;13.80;85.50;101252.16;4947866;28;20709;-70
2023/09/09 04:16:16;;;;;;;17.30;12.37;;;;;;;13.81;86.11;101261.66;4952469;28;20224;-71
2023/09/09 04:18:43;;;;;;;14.37;12.10;;;;;;;13.82;86.26;101273.06;4946461;28;20221;-71
2023/09/09 04:21:09;;;;;;;16.97;12.60;;;;;;;13.83;86.82;101269.28;4953587;28;20208;-71
2023/09/09 04:23:35;;;;;;;15.17;11.67;;;;;;;13.82;86.58;101275.72;4962876;28;20238;-71
2023/09/09 04:26:02;;;;;;;17.13;12.60;;;;;;;13.82;86.82;101259.78;4952674;28;20847;-71
2023/09/09 04:28:28;;;;;;;14.77;12.57;;;;;;;13.80;86.87;101262.75;4964521;28;20882;-71
2023/09/09 04:30:55;;;;;;;17.17;12.43;;;;;;;13.80;87.05;101262.75;4965338;28;20584;-71
2023/09/09 04:33:23;;;;;;;12.93;11.33;;;;;;;13.81;86.92;101266.22;4947061;28;20705;-71
2023/09/09 04:35:50;;;;;;;14.03;11.40;;;;;;;13.82;87.23;101271.16;4952696;28;20720;-71
2023/09/09 04:38:19;;;;;;;13.50;11.57;;;;;;;13.81;87.08;101256.34;4948820;28;20213;-71
2023/09/09 04:40:46;;;;;;;15.00;11.83;;;;;;;13.82;86.96;101265.84;4949388;28;20211;-70
2023/09/09 04:43:12;;;;;;;16.43;12.50;;;;;;;13.84;86.98;101257.56;4949347;28;20913;-70
2023/09/09 04:45:39;;;;;;;15.93;13.00;;;;;;;13.84;87.13;101262.88;4948120;28;21444;-71
2023/09/09 04:48:07;;;;;;;17.47;13.53;;;;;;;13.88;88.20;101263.78;4947352;28;21328;-70
2023/09/09 04:50:34;;;;;;;16.60;13.10;;;;;;;13.89;87.61;101265.31;4953395;28;20293;-70
2023/09/09 04:53:02;;;;;;;16.67;13.63;;;;;;;13.91;87.57;101274.50;4950179;28;20684;-70
2023/09/09 04:55:29;;;;;;;17.73;13.13;;;;;;;13.95;87.35;101277.25;4949260;28;20231;-71
2023/09/09 04:57:55;;;;;;;17.93;13.10;;;;;;;13.98;87.80;101282.69;4951556;28;20752;-71
2023/09/09 05:00:22;;;;;;;17.07;13.20;;;;;;;14.03;88.42;101279.06;4951268;28;20208;-71
2023/09/09 05:02:48;;;;;;;18.33;13.70;;;;;;;14.04;88.00;101276.06;4952625;28;20232;-71
2023/09/09 05:05:15;;;;;;;19.97;13.93;;;;;;;14.08;88.10;101284.91;4947571;28;20204;-71
2023/09/09 05:07:42;;;;;;;17.83;12.93;;;;;;;14.11;86.92;101278.94;4950851;28;20220;-71
2023/09/09 05:10:09;;;;;;;15.60;13.00;;;;;;;14.14;87.64;101288.13;4948195;28;20209;-71
2023/09/09 05:12:37;;;;;;;16.00;13.17;;;;;;;14.17;87.74;101284.78;4950340;28;20712;-71
2023/09/09 05:15:06;;;;;;;16.00;13.47;;;;;;;14.18;87.00;101287.13;4953002;28;20210;-71
2023/09/09 05:17:33;;;;;;;17.57;13.87;;;;;;;14.23;87.65;101283.53;4951512;28;20224;-71
2023/09/09 05:20:00;;;;;;;17.93;13.57;;;;;;;14.24;86.07;101287.72;4952655;28;20899;-71
2023/09/09 05:22:26;;;;;;;16.37;13.03;;;;;;;14.24;85.43;101295.69;4959969;28;20296;-71
2023/09/09 05:24:54;;;;;;;19.90;13.93;;;;;;;14.29;86.25;101290.16;4949558;28;20590;-71
2023/09/09 05:27:21;;;;;;;18.63;14.67;;;;;;;14.34;86.47;101289.94;4950930;28;20232;-71
2023/09/09 05:29:47;;;;;;;17.37;13.43;;;;;;;14.35;85.74;101294.94;4951644;28;20208;-71
2023/09/09 05:32:14;;;;;;;19.63;13.57;;;;;;;14.41;86.40;101287.50;4962198;28;20247;-71
2023/09/09 05:34:41;;;;;;;18.73;14.77;;;;;;;14.44;85.81;101287.59;4954517;28;20209;-71
2023/09/09 05:37:12;;;;;;;16.57;13.53;;;;;;;14.50;86.26;101285.50;4953619;28;21277;-71
2023/09/09 05:39:39;;;;;;;15.63;12.93;;;;;;;14.55;86.28;101293.25;4953257;28;20662;-71
2023/09/09 05:42:07;;;;;;;17.80;13.57;;;;;;;14.62;86.07;101296.88;4954995;28;21171;-71
2023/09/09 05:44:35;;;;;;;16.10;13.23;;;;;;;14.69;86.11;101301.66;4955022;28;20224;-71
2023/09/09 05:47:01;;;;;;;16.07;12.73;;;;;;;14.74;85.95;101296.88;4958650;28;20241;-71
2023/09/09 05:49:27;;;;;;;15.57;12.67;;;;;;;14.81;85.69;101298.97;4955439;28;20209;-71
2023/09/09 05:51:54;;;;;;;15.77;12.10;;;;;;;14.87;85.10;101292.28;4953119;28;20331;-71
2023/09/09 05:54:21;;;;;;;14.07;11.90;;;;;;;14.94;85.13;101297.81;4968990;28;20963;-71
2023/09/09 05:56:47;;;;;;;15.83;12.03;;;;;;;15.04;84.98;101298.13;4954136;28;20235;-71
2023/09/09 05:59:15;;;;;;;14.93;12.07;;;;;;;15.11;84.60;101302.88;4951913;28;20209;-71
2023/09/09 06:01:42;;;;;;;12.93;11.47;;;;;;;15.19;84.66;101305.38;4951910;28;20851;-71
2023/09/09 06:04:09;;;;;;;16.07;10.90;;;;;;;15.27;83.16;101301.78;4955762;28;21525;-70
2023/09/09 06:06:35;;;;;;;18.23;12.10;;;;;;;15.38;83.31;101304.78;4950050;28;20228;-71
2023/09/09 06:09:02;;;;;;;13.67;11.13;;;;;;;15.47;82.83;101303.50;4956125;28;20213;-71
2023/09/09 06:11:28;;;;;;;12.00;10.57;;;;;;;15.59;82.78;101292.03;4951891;28;20211;-71
2023/09/09 06:13:55;;;;;;;13.67;9.97;;;;;;;15.68;82.86;101309.41;4948622;28;21467;-71
2023/09/09 06:16:23;;;;;;;12.53;10.03;;;;;;;15.80;82.78;101312.00;4954482;28;20264;-71
2023/09/09 06:18:49;;;;;;;12.30;9.87;;;;;;;15.89;82.09;101317.91;4950660;28;20219;-71
2023/09/09 06:21:15;;;;;;;12.17;8.97;;;;;;;15.99;81.80;101306.75;4956476;28;20815;-71
2023/09/09 06:23:42;;;;;;;10.17;8.53;;;;;;;16.09;81.15;101308.91;4952917;28;20232;-71
2023/09/09 06:26:08;;;;;;;9.90;8.70;;;;;;;16.22;82.05;101314.94;4954109;28;20246;-71
2023/09/09 06:28:35;;;;;;;10.63;8.97;;;;;;;16.33;81.40;101303.41;4955806;28;20225;-71
2023/09/09 06:31:02;;;;;;;13.03;9.23;;;;;;;16.42;80.33;101312.03;4964501;28;20207;-71
2023/09/09 06:33:30;;;;;;;11.83;9.17;;;;;;;16.56;81.43;101319.56;4953520;28;20211;-71
2023/09/09 06:35:56;;;;;;;10.17;8.57;;;;;;;16.66;80.66;101314.47;4953007;28;20830;-71
2023/09/09 06:38:24;;;;;;;11.43;8.60;;;;;;;16.77;79.91;101312.78;4946125;28;20618;-71
2023/09/09 06:40:51;;;;;;;10.20;8.73;;;;;;;16.89;79.89;101317.25;4952567;28;21528;-71
2023/09/09 06:43:20;;;;;;;9.57;8.10;;;;;;;17.01;79.26;101317.09;4952147;28;20221;-71
2023/09/09 06:45:46;;;;;;;10.43;8.23;;;;;;;17.13;78.78;101315.06;4949236;28;20208;-71
2023/09/09 06:48:16;;;;;;;9.43;7.77;;;;;;;17.27;78.70;101327.91;4955759;28;20217;-71
2023/09/09 06:50:45;;;;;;;9.03;8.13;;;;;;;17.40;78.69;101335.50;4951725;28;20635;-71
2023/09/09 06:53:12;;;;;;;10.10;8.20;;;;;;;17.53;78.30;101336.88;4952395;28;21589;-71
2023/09/09 06:55:38;;;;;;;10.60;7.80;;;;;;;17.67;78.22;101336.34;4949063;28;20682;-71
2023/09/09 06:58:05;;;;;;;8.40;7.57;;;;;;;17.81;77.35;101331.28;4954426;28;20236;-71
2023/09/09 07:00:31;;;;;;;8.57;7.33;;;;;;;17.94;77.27;101335.31;4952942;28;20209;-71
2023/09/09 07:02:58;;;;;;;8.93;7.13;;;;;;;18.07;76.81;101331.34;4950855;28;20229;-71
2023/09/09 07:05:26;;;;;;;10.10;6.90;;;;;;;18.18;76.07;101329.59;4948566;28;20434;-71
2023/09/09 07:07:54;;;;;;;8.27;6.77;;;;;;;18.31;76.24;101336.31;4947169;28;20232;-71
2023/09/09 07:10:20;;;;;;;10.13;7.27;;;;;;;18.45;75.89;101336.53;5019097;23;20239;-76
2023/09/09 07:12:49;;;;;;;7.30;6.53;;;;;;;18.58;75.28;101333.31;4998276;28;20207;-75
2023/09/09 07:15:15;;;;;;;8.80;6.70;;;;;;;18.70;74.75;101333.13;5000242;28;20204;-76
2023/09/09 07:17:43;;;;;;;7.53;5.90;;;;;;;18.84;74.31;101338.63;4997069;28;20207;-76
2023/09/09 07:20:10;;;;;;;7.83;5.90;;;;;;;18.97;73.70;101331.94;4995736;28;20223;-74
2023/09/09 07:22:36;;;;;;;7.60;6.07;;;;;;;19.11;73.47;101340.16;4990397;28;20208;-76
2023/09/09 07:25:05;;;;;;;7.57;5.77;;;;;;;19.23;73.39;101336.47;4994775;28;20204;-76
2023/09/09 07:27:31;;;;;;;8.00;5.63;;;;;;;19.38;72.36;101344.34;4994588;28;20454;-76
2023/09/09 07:29:58;;;;;;;7.43;6.30;;;;;;;19.50;72.43;101341.41;4994308;28;20228;-76
2023/09/09 07:32:24;;;;;;;7.73;6.03;;;;;;;19.62;72.38;101333.09;4991673;28;20223;-76
2023/09/09 07:34:51;;;;;;;6.23;5.27;;;;;;;19.78;71.23;101332.88;4992921;28;20248;-76
2023/09/09 07:37:18;;;;;;;6.97;5.40;;;;;;;19.91;71.06;101334.91;4990809;28;20204;-76
2023/09/09 07:39:45;;;;;;;7.17;5.53;;;;;;;20.03;69.89;101334.63;4992404;28;20235;-76
2023/09/09 07:42:13;;;;;;;8.27;5.27;;;;;;;20.20;69.43;101330.59;4991485;28;20656;-76
2023/09/09 07:44:40;;;;;;;8.03;5.17;;;;;;;20.31;69.52;101331.44;4992825;28;20255;-76
2023/09/09 07:47:07;;;;;;;7.63;5.20;;;;;;;20.44;68.89;101330.00;4990257;28;20204;-76
2023/09/09 07:49:34;;;;;;;5.90;4.73;;;;;;;20.57;67.67;101337.38;4989677;28;20261;-76
2023/09/09 07:52:00;;;;;;;6.07;4.90;;;;;;;20.72;66.96;101332.84;4989778;28;20196;-76
2023/09/09 07:54:27;;;;;;;5.67;4.63;;;;;;;20.87;67.20;101342.53;4989757;28;21210;-76
2023/09/09 07:56:54;;;;;;;6.57;4.67;;;;;;;21.03;65.17;101337.66;4988750;28;20295;-76
2023/09/09 07:59:22;;;;;;;5.33;4.53;;;;;;;21.16;65.54;101331.56;4988741;28;20532;-76
2023/09/09 08:01:48;;;;;;;5.43;4.50;;;;;;;21.25;65.43;101331.97;4985575;28;20212;-76
2023/09/09 08:04:15;;;;;;;5.10;4.60;;;;;;;21.38;66.13;101333.16;4987722;28;20220;-76
2023/09/09 08:06:41;;;;;;;6.27;4.47;;;;;;;21.51;64.81;101325.53;4987606;28;20555;-76
2023/09/09 08:09:07;;;;;;;6.57;4.47;;;;;;;21.68;62.38;101324.84;4984386;28;20232;-76
2023/09/09 08:11:34;;;;;;;9.43;4.53;;;;;;;21.81;61.58;101326.78;4983468;28;20227;-76
2023/09/09 08:14:00;;;;;;;7.37;4.50;;;;;;;21.95;61.46;101334.84;4985063;28;20200;-76
2023/09/09 08:16:34;;;;;;;6.90;4.37;;;;;;;22.06;62.21;101337.53;5067389;27;20882;-69
2023/09/09 08:19:01;;;;;;;4.30;3.70;;;;;;;22.18;61.95;101327.16;5049506;28;20216;-70
2023/09/09 08:21:27;;;;;;;5.00;3.90;;;;;;;22.29;62.76;101327.13;5050403;28;20231;-70
2023/09/09 08:23:54;;;;;;;4.00;3.60;;;;;;;22.44;58.01;101329.47;5048966;28;20786;-70
2023/09/09 08:26:20;;;;;;;4.80;4.00;;;;;;;22.54;61.03;101326.00;5046024;28;20201;-70
2023/09/09 08:31:24;;;;;;;4.53;3.60;;;;;;;22.76;57.87;101327.47;4944770;28;22027;-70
2023/09/09 08:33:52;;;;;;;6.47;4.07;;;;;;;22.89;56.83;101325.91;4950106;28;20208;-70
2023/09/09 08:36:18;;;;;;;4.82;4.25;;;;;;;22.97;57.19;101323.94;4932764;28;20811;-70
2023/09/09 08:38:44;;;;;;;4.93;4.00;;;;;;;23.09;55.31;101318.13;4947889;28;20215;-69
2023/09/09 08:41:17;;;;;;;4.15;3.70;;;;;;;23.16;56.10;101316.16;4950313;28;20246;-70
2023/09/09 08:43:50;;;;;;;5.68;4.00;;;;;;;23.29;55.46;101314.56;4946869;28;20236;-69
2023/09/09 08:46:18;;;;;;;4.95;4.00;;;;;;;23.42;54.01;101319.53;4967678;28;21661;-70
2023/09/09 08:48:45;;;;;;;5.45;3.85;;;;;;;23.51;56.40;101317.91;4969512;28;20204;-70
2023/09/09 08:51:14;;;;;;;4.72;4.13;;;;;;;23.61;54.98;101325.19;4949562;28;20232;-69
2023/09/09 08:53:42;;;;;;;4.53;4.13;;;;;;;23.69;53.86;101321.28;4967528;28;21307;-69
2023/09/09 08:56:08;;;;;;;7.47;3.88;;;;;;;23.77;53.01;101319.31;4966701;28;20601;-70
2023/09/09 08:58:35;;;;;;;6.70;4.07;;;;;;;23.83;54.08;101321.94;4966626;28;20559;-70
2023/09/09 09:01:01;;;;;;;5.50;3.95;;;;;;;23.90;52.66;101317.69;4968998;28;20753;-70
2023/09/09 09:03:28;;;;;;;5.05;3.80;;;;;;;23.97;54.42;101320.31;4942250;28;20223;-69
2023/09/09 09:05:55;;;;;;;7.10;3.67;;;;;;;24.06;51.40;101321.41;4967090;28;20216;-70
2023/09/09 09:08:23;;;;;;;6.13;4.22;;;;;;;24.12;54.11;101309.03;4964010;28;20211;-69
2023/09/09 09:10:49;;;;;;;4.32;3.85;;;;;;;24.19;52.28;101308.94;4968244;28;20228;-70
2023/09/09 09:13:15;;;;;;;6.85;4.68;;;;;;;24.30;52.74;101319.66;4932602;28;20208;-70
2023/09/09 09:15:42;;;;;;;6.03;4.13;;;;;;;24.36;51.86;101316.13;4963922;28;20228;-69
2023/09/09 09:18:09;;;;;;;7.38;4.43;;;;;;;24.47;53.53;101311.38;4961697;28;20588;-69
2023/09/09 09:20:38;;;;;;;7.55;3.92;;;;;;;24.60;50.22;101311.69;4969424;28;20254;-70
2023/09/09 09:23:06;;;;;;;5.13;4.20;;;;;;;24.66;50.82;101308.09;4965249;28;20821;-69
2023/09/09 09:25:37;;;;;;;5.18;4.13;;;;;;;24.78;50.57;101310.31;4968869;28;21823;-69
2023/09/09 09:28:05;;;;;;;8.30;4.20;;;;;;;24.91;51.89;101326.75;4948867;28;20209;-68
2023/09/09 09:30:32;;;;;;;8.02;3.90;;;;;;;25.01;49.56;101312.31;4952859;28;20263;-69
2023/09/09 09:32:58;;;;;;;6.57;4.05;;;;;;;25.11;51.17;101312.22;4955875;28;20215;-69
2023/09/09 09:35:25;;;;;;;6.75;4.15;;;;;;;25.20;49.77;101314.41;4952669;28;20228;-70
2023/09/09 09:37:53;;;;;;;7.13;4.47;;;;;;;25.30;49.39;101305.41;4948713;28;20529;-69
2023/09/09 09:40:19;;;;;;;6.93;4.32;;;;;;;25.37;49.53;101308.78;4932452;28;20740;-70
2023/09/09 09:42:47;;;;;;;5.30;4.00;;;;;;;25.50;46.80;101303.59;4955514;28;20851;-69
2023/09/09 09:45:15;;;;;;;4.45;3.50;;;;;;;25.55;51.09;101320.13;4951911;28;20220;-70
2023/09/09 09:47:46;;;;;;;5.00;3.85;;;;;;;25.67;50.30;101306.03;4955071;28;20376;-71
2023/09/09 09:50:22;;;;;;;6.32;4.03;;;;;;;25.75;45.73;101307.44;4953006;28;20263;-69
2023/09/09 09:52:55;;;;;;;5.22;3.88;;;;;;;25.84;47.70;101298.81;4953391;28;20215;-68
2023/09/09 09:55:22;;;;;;;5.10;4.00;;;;;;;25.90;45.31;101300.63;4949035;28;20228;-69
2023/09/09 09:57:50;;;;;;;6.07;3.55;;;;;;;25.95;48.54;101305.59;4937068;28;20620;-70
2023/09/09 10:00:17;;;;;;;4.32;3.75;;;;;;;26.01;46.14;101300.50;4933970;28;20232;-70
2023/09/09 10:02:46;;;;;;;7.05;4.28;;;;;;;26.08;44.39;101297.66;4935464;28;22063;-69
2023/09/09 10:05:14;;;;;;;4.50;3.60;;;;;;;26.15;46.61;101292.13;4952783;28;20709;-69
2023/09/09 10:07:43;;;;;;;4.28;3.85;;;;;;;26.24;47.84;101298.53;4954488;28;20208;-68
2023/09/09 10:10:11;;;;;;;5.40;3.78;;;;;;;26.33;44.39;101295.28;4954124;28;20234;-69
2023/09/09 10:12:43;;;;;;;6.45;4.07;;;;;;;26.37;47.53;101304.88;4951475;28;20237;-69
2023/09/09 10:15:12;;;;;;;6.18;4.43;;;;;;;26.45;45.25;101300.84;4953963;28;20244;-69
2023/09/09 10:17:40;;;;;;;6.07;4.00;;;;;;;26.55;46.87;101299.13;4951538;28;20209;-69
2023/09/09 10:20:08;;;;;;;5.18;3.75;;;;;;;26.59;44.45;101289.78;4937459;28;20232;-70
2023/09/09 10:22:36;;;;;;;6.60;4.03;;;;;;;26.68;42.64;101291.94;4933318;28;20221;-70
2023/09/09 10:25:04;;;;;;;5.82;3.58;;;;;;;26.76;45.22;101283.25;4955388;28;20205;-71
2023/09/09 10:27:30;;;;;;;5.97;4.18;;;;;;;26.84;42.90;101278.44;4955105;28;20210;-69
2023/09/09 10:29:58;;;;;;;4.15;3.70;;;;;;;26.89;44.99;101283.38;4954704;28;20232;-70
2023/09/09 10:32:27;;;;;;;4.40;3.70;;;;;;;26.95;44.27;101274.34;4953995;28;20212;-69
2023/09/09 10:34:54;;;;;;;7.32;4.40;;;;;;;27.00;45.33;101281.97;4955616;28;20204;-69
2023/09/09 10:37:23;;;;;;;4.78;3.92;;;;;;;27.02;44.60;101279.59;4952322;28;20217;-70
2023/09/09 10:39:50;;;;;;;5.70;3.72;;;;;;;27.09;42.58;101290.28;4935903;28;20232;-69
2023/09/09 10:42:18;;;;;;;5.75;3.85;;;;;;;27.15;41.90;101277.75;4953446;28;20915;-69
2023/09/09 10:44:47;;;;;;;5.30;3.83;;;;;;;27.18;40.89;101276.19;4953357;28;20208;-69
2023/09/09 10:47:15;;;;;;;5.40;4.00;;;;;;;27.20;41.61;101271.84;4950269;28;20215;-69
2023/09/09 10:49:43;;;;;;;6.47;4.30;;;;;;;27.22;42.46;101274.94;4951469;28;20228;-70
2023/09/09 10:52:30;;;;;;;5.25;3.85;;;;;;;27.34;39.84;101270.81;4934933;28;20201;-69
2023/09/09 10:55:11;;;;;;;5.68;3.95;;;;;;;27.39;40.75;101271.03;4935259;28;20291;-69
2023/09/09 10:57:37;;;;;;;5.28;3.40;;;;;;;27.45;43.46;101269.34;4952679;28;20235;-70
2023/09/09 11:00:05;;;;;;;4.40;3.85;;;;;;;27.51;40.66;101267.66;4953065;28;20239;-69
2023/09/09 11:02:32;;;;;;;5.55;3.70;;;;;;;27.51;39.15;101258.78;4952511;28;20826;-69
2023/09/09 11:05:11;;;;;;;5.28;3.63;;;;;;;27.56;40.13;101258.25;4953265;28;20593;-70
2023/09/09 11:07:39;;;;;;;3.47;3.17;;;;;;;27.61;39.16;101258.50;4952958;28;20287;-69
2023/09/09 11:10:07;;;;;;;6.20;3.70;;;;;;;27.68;39.86;101263.78;4952724;28;20730;-70
2023/09/09 11:12:34;;;;;;;3.90;3.50;;;;;;;27.78;39.72;101257.31;4928665;28;20217;-70
2023/09/09 11:15:08;;;;;;;5.85;3.70;;;;;;;27.83;38.77;101254.13;4954755;28;20211;-69
2023/09/09 11:17:36;;;;;;;4.22;3.50;;;;;;;27.89;39.96;101252.41;4934116;28;21013;-69
2023/09/09 11:20:08;;;;;;;5.90;3.80;;;;;;;27.94;38.88;101254.63;4950745;28;20247;-69